Haxtun, CO

9:31 AM MDT on September 30, 2014 (GMT -0600)
Holyoke Municipal | Change Station
CLOSE
Current Station
Airport
Location: Holyoke AP, Holyoke, CO,
Elevation: 3730 ft
Nearby Weather Stations

Elev 3730 ft 40.57 °N, 102.28 °W | Updated 16 minutes ago

Clear
Clear
61 °F
Feels Like 61 °F
N
8
Wind Variable Wind from SW

Today
High -- | Low -- °F
--% Chance of Precip.
Yesterday
High -- | Low -- °F
Precip. -- in
6:46 AM 6:34 PM
Waxing Crescent, 37% visible
Pressure 29.82 in
Visibility 10.0 miles
Clouds Clear
Dew Point 48 °F
Humidity 63%
Rainfall 0.00 in
Snow Depth 0 in , 0 in , 1 in
UV 3 out of 12
Pollen .50 out of 12
Air Quality Not available.
Flu Activity Not available.
METAR KHEQ 301515Z AUTO 22007KT 10SM CLR 16/09 A2982 RMK AO2

More Conditions Fewer Conditions

Pressure 29.82 in
Visibility 10.0 miles
Clouds Clear
Dew Point 48 °F
Humidity 63%
Rainfall 0.00 in
Snow Depth 0 in , 0 in , 1 in
UV 3 out of 12
Pollen .50 out of 12
Air Quality Not available.
Flu Activity Not available.
METAR KHEQ 301515Z AUTO 22007KT 10SM CLR 16/09 A2982 RMK AO2

More Conditions Fewer Conditions

10-Day Weather Forecast

Almanac

Astronomy

Sep. 30, 2014 Rise Set
Actual Time 6:46 AM MDT 6:34 PM MDT
Civil Twilight 6:18 AM MDT 7:01 PM MDT
Nautical Twilight 5:47 AM MDT 7:33 PM MDT
Astronomical Twilight 5:14 AM MDT 8:05 PM MDT
Moon 12:57 PM MDT 11:05 PM MDT
Length of Visible Light 12h 42m
Length of Day
11h 48m
Tomorrow will be 2m 41s shorter.
Waxing Crescent, 37% of the Moon is Illuminated
Today
Waxing Crescent
Oct 1
First Quarter
Oct 8
Full
Oct 15
Last Quarter
Oct 23
New

Community

WunderPhotos

Upload Photos

1,757,669 photos uploaded!

Nearby

Snow Depth

Station Depth Elevation
Mccoy Park 0 in 9480 ft
Idarado 0 in 9800 ft
Lizard Head Pass 1 in 10200 ft
Arapaho Ridge 1 in 10960 ft
Columbus Basin 0 in 10785 ft

Earthquake Activity

City Distance Mag. Time & Date
No recent earthquake activity has been reported nearby.
Minimum magnitude displayed is 2.5.

Coastal Water Temperatures

Place Temperature
No Stations Reporting

Nearby Weather Stations